UAL1870 KPSP-KSFO
Flight info
| Callsign | UAL1870 |
|---|---|
| Flight time | 1h 4m |
| Altitude | 36000 |
| Route | YUCCA1 PMD AVE MAKRS SERFR SERFR4 |
| Aircraft | A320/M-SDE3FGHIRWY/LB1 |
Departure
| Time | 2026-05-05 03:31 |
|---|---|
| Airport | Palm Springs International Airport (KPSP) |
Arrival
| Time | 2026-05-05 04:36 |
|---|---|
| Airport | San Francisco International Airport (KSFO) |
| Time | Latitude | Longitude | Altitude | Speed | Heading |
|---|---|---|---|---|---|
| 2026-05-05 02:59 | 33.82084 | -116.50720 | 419 ft | 0 kts | 360° |
| 2026-05-05 03:24 | 33.82079 | -116.50720 | 427 ft | 4 kts | 360° |
| 2026-05-05 03:24 | 33.82054 | -116.50720 | 424 ft | 2 kts | 359° |
| 2026-05-05 03:24 | 33.82033 | -116.50724 | 420 ft | 4 kts | 51° |
| 2026-05-05 03:24 | 33.82030 | -116.50746 | 414 ft | 4 kts | 127° |
| 2026-05-05 03:25 | 33.82045 | -116.50766 | 427 ft | 1 kts | 135° |
| 2026-05-05 03:27 | 33.82039 | -116.50758 | 427 ft | 5 kts | 135° |
| 2026-05-05 03:27 | 33.82034 | -116.50753 | 427 ft | 5 kts | 135° |
| 2026-05-05 03:27 | 33.82001 | -116.50713 | 424 ft | 8 kts | 135° |
| 2026-05-05 03:28 | 33.81967 | -116.50653 | 424 ft | 10 kts | 101° |
| 2026-05-05 03:28 | 33.81967 | -116.50564 | 427 ft | 12 kts | 90° |
| 2026-05-05 03:28 | 33.81967 | -116.50457 | 425 ft | 15 kts | 90° |
| 2026-05-05 03:28 | 33.81966 | -116.50304 | 415 ft | 18 kts | 91° |
| 2026-05-05 03:29 | 33.81966 | -116.50160 | 414 ft | 18 kts | 90° |
| 2026-05-05 03:29 | 33.81927 | -116.50045 | 414 ft | 15 kts | 140° |
| 2026-05-05 03:29 | 33.81854 | -116.49965 | 412 ft | 3 kts | 107° |
| 2026-05-05 03:29 | 33.81852 | -116.49935 | 412 ft | 5 kts | 94° |
| 2026-05-05 03:30 | 33.81849 | -116.49875 | 412 ft | 10 kts | 91° |
| 2026-05-05 03:30 | 33.81902 | -116.49819 | 411 ft | 15 kts | 345° |
| 2026-05-05 03:30 | 33.81952 | -116.49860 | 405 ft | 0 kts | 323° |
| 2026-05-05 03:30 | 33.82055 | -116.49951 | 413 ft | 49 kts | 323° |
| 2026-05-05 03:31 | 33.82495 | -116.50345 | 418 ft | 105 kts | 323° |
| 2026-05-05 03:31 | 33.83193 | -116.50966 | 492 ft | 139 kts | 322° |
| 2026-05-05 03:31 | 33.83975 | -116.51668 | 980 ft | 143 kts | 322° |
| 2026-05-05 03:31 | 33.84806 | -116.52430 | 1408 ft | 158 kts | 319° |
| 2026-05-05 03:32 | 33.85728 | -116.53309 | 1660 ft | 185 kts | 318° |
| 2026-05-05 03:32 | 33.86782 | -116.54366 | 1937 ft | 209 kts | 319° |
| 2026-05-05 03:32 | 33.88010 | -116.55443 | 2450 ft | 224 kts | 323° |
| 2026-05-05 03:32 | 33.89326 | -116.56493 | 3177 ft | 230 kts | 324° |
| 2026-05-05 03:33 | 33.90857 | -116.57156 | 3842 ft | 244 kts | 355° |
| 2026-05-05 03:33 | 33.92562 | -116.56603 | 4426 ft | 270 kts | 26° |
| 2026-05-05 03:33 | 33.94085 | -116.55204 | 5212 ft | 281 kts | 40° |
| 2026-05-05 03:33 | 33.95491 | -116.53539 | 6026 ft | 286 kts | 41° |
| 2026-05-05 03:34 | 33.97083 | -116.52127 | 6835 ft | 285 kts | 24° |
| 2026-05-05 03:34 | 33.98954 | -116.51414 | 7617 ft | 284 kts | 5° |
| 2026-05-05 03:34 | 34.00935 | -116.51431 | 8397 ft | 286 kts | 354° |
| 2026-05-05 03:34 | 34.02933 | -116.51588 | 9193 ft | 290 kts | 355° |
| 2026-05-05 03:35 | 34.04958 | -116.51740 | 9948 ft | 294 kts | 356° |
| 2026-05-05 03:35 | 34.07042 | -116.51887 | 10367 ft | 310 kts | 355° |
| 2026-05-05 03:35 | 34.09273 | -116.52053 | 10545 ft | 333 kts | 353° |
| 2026-05-05 03:35 | 34.11587 | -116.52609 | 10940 ft | 344 kts | 342° |
| 2026-05-05 03:36 | 34.13875 | -116.53513 | 11542 ft | 349 kts | 339° |
| 2026-05-05 03:36 | 34.16202 | -116.54427 | 12185 ft | 354 kts | 340° |
| 2026-05-05 03:36 | 34.18557 | -116.55344 | 12834 ft | 358 kts | 339° |
| 2026-05-05 03:36 | 34.20937 | -116.56271 | 13475 ft | 362 kts | 339° |
| 2026-05-05 03:37 | 34.23335 | -116.57205 | 14126 ft | 363 kts | 339° |
| 2026-05-05 03:37 | 34.25762 | -116.58152 | 14639 ft | 368 kts | 338° |
| 2026-05-05 03:37 | 34.28212 | -116.59113 | 15160 ft | 373 kts | 338° |
| 2026-05-05 03:37 | 34.30693 | -116.60091 | 15678 ft | 377 kts | 338° |
| 2026-05-05 03:38 | 34.33194 | -116.61081 | 16222 ft | 380 kts | 338° |
| 2026-05-05 03:38 | 34.35724 | -116.62084 | 16725 ft | 385 kts | 338° |
| 2026-05-05 03:38 | 34.38287 | -116.63096 | 17267 ft | 390 kts | 338° |
| 2026-05-05 03:38 | 34.40881 | -116.64117 | 17802 ft | 394 kts | 338° |
| 2026-05-05 03:39 | 34.43495 | -116.65167 | 18345 ft | 397 kts | 334° |
| 2026-05-05 03:39 | 34.45928 | -116.66686 | 18859 ft | 392 kts | 320° |
| 2026-05-05 03:39 | 34.47985 | -116.68811 | 19403 ft | 386 kts | 307° |
| 2026-05-05 03:39 | 34.49586 | -116.71392 | 19975 ft | 381 kts | 295° |
| 2026-05-05 03:40 | 34.50676 | -116.74276 | 20552 ft | 375 kts | 283° |
| 2026-05-05 03:40 | 34.51238 | -116.77337 | 21118 ft | 371 kts | 272° |
| 2026-05-05 03:40 | 34.51536 | -116.80445 | 21689 ft | 372 kts | 272° |
| 2026-05-05 03:40 | 34.51837 | -116.83564 | 22228 ft | 373 kts | 272° |
| 2026-05-05 03:41 | 34.52141 | -116.86698 | 22761 ft | 375 kts | 272° |
| 2026-05-05 03:41 | 34.52447 | -116.89853 | 23280 ft | 378 kts | 272° |
| 2026-05-05 03:41 | 34.52756 | -116.93029 | 23730 ft | 380 kts | 272° |
| 2026-05-05 03:41 | 34.53065 | -116.96219 | 24160 ft | 382 kts | 272° |
| 2026-05-05 03:42 | 34.53375 | -116.99420 | 24620 ft | 383 kts | 271° |
| 2026-05-05 03:42 | 34.53683 | -117.02632 | 25041 ft | 384 kts | 271° |
| 2026-05-05 03:42 | 34.53992 | -117.05890 | 25480 ft | 385 kts | 271° |
| 2026-05-05 03:42 | 34.54292 | -117.09075 | 25893 ft | 385 kts | 270° |
| 2026-05-05 03:43 | 34.54596 | -117.12309 | 26312 ft | 387 kts | 270° |
| 2026-05-05 03:43 | 34.54902 | -117.15554 | 26699 ft | 388 kts | 270° |
| 2026-05-05 03:43 | 34.55215 | -117.18851 | 27167 ft | 390 kts | 270° |
| 2026-05-05 03:43 | 34.55520 | -117.22077 | 27529 ft | 391 kts | 269° |
| 2026-05-05 03:44 | 34.55831 | -117.25411 | 27939 ft | 393 kts | 269° |
| 2026-05-05 03:44 | 34.56129 | -117.28595 | 28306 ft | 394 kts | 269° |
| 2026-05-05 03:44 | 34.56443 | -117.31960 | 28695 ft | 395 kts | 269° |
| 2026-05-05 03:44 | 34.56746 | -117.35235 | 29053 ft | 397 kts | 269° |
| 2026-05-05 03:45 | 34.57060 | -117.38638 | 29407 ft | 398 kts | 268° |
| 2026-05-05 03:45 | 34.57362 | -117.41924 | 29767 ft | 400 kts | 268° |
| 2026-05-05 03:45 | 34.57675 | -117.45284 | 30106 ft | 401 kts | 268° |
| 2026-05-05 03:45 | 34.57989 | -117.48653 | 30467 ft | 401 kts | 268° |
| 2026-05-05 03:46 | 34.58303 | -117.52008 | 30873 ft | 399 kts | 268° |
| 2026-05-05 03:46 | 34.58611 | -117.55347 | 31288 ft | 397 kts | 267° |
| 2026-05-05 03:46 | 34.58911 | -117.58663 | 31693 ft | 395 kts | 267° |
| 2026-05-05 03:46 | 34.59209 | -117.61966 | 32104 ft | 393 kts | 267° |
| 2026-05-05 03:47 | 34.59506 | -117.65261 | 32525 ft | 391 kts | 267° |
| 2026-05-05 03:47 | 34.59800 | -117.68530 | 32940 ft | 389 kts | 266° |
| 2026-05-05 03:47 | 34.60093 | -117.71789 | 33365 ft | 387 kts | 266° |
| 2026-05-05 03:47 | 34.60383 | -117.75034 | 33795 ft | 386 kts | 266° |
| 2026-05-05 03:48 | 34.60671 | -117.78260 | 34188 ft | 384 kts | 266° |
| 2026-05-05 03:48 | 34.60958 | -117.81477 | 34475 ft | 385 kts | 266° |
| 2026-05-05 03:48 | 34.61244 | -117.84726 | 34666 ft | 388 kts | 266° |
| 2026-05-05 03:48 | 34.61434 | -117.86882 | 34823 ft | 388 kts | 266° |
| 2026-05-05 03:49 | 34.61720 | -117.90146 | 35075 ft | 389 kts | 266° |
| 2026-05-05 03:49 | 34.62005 | -117.93410 | 35336 ft | 389 kts | 266° |
| 2026-05-05 03:49 | 34.62290 | -117.96684 | 35585 ft | 390 kts | 267° |
| 2026-05-05 03:49 | 34.62575 | -117.99957 | 35829 ft | 390 kts | 267° |
| 2026-05-05 03:50 | 34.62903 | -118.03241 | 35969 ft | 396 kts | 271° |
| 2026-05-05 03:50 | 34.63645 | -118.06523 | 36018 ft | 412 kts | 281° |
| 2026-05-05 03:50 | 34.64924 | -118.09708 | 36011 ft | 429 kts | 292° |
| 2026-05-05 03:50 | 34.66584 | -118.12745 | 36008 ft | 433 kts | 293° |
| 2026-05-05 03:51 | 34.69929 | -118.18843 | 36008 ft | 434 kts | 293° |
| 2026-05-05 03:51 | 34.73259 | -118.24962 | 36019 ft | 435 kts | 294° |
| 2026-05-05 03:52 | 34.76582 | -118.31116 | 36012 ft | 436 kts | 293° |
| 2026-05-05 03:52 | 34.79899 | -118.37278 | 36030 ft | 437 kts | 294° |
| 2026-05-05 03:53 | 34.83236 | -118.43457 | 36026 ft | 437 kts | 294° |
| 2026-05-05 03:53 | 34.86571 | -118.49655 | 36016 ft | 437 kts | 294° |
| 2026-05-05 03:54 | 34.89904 | -118.55851 | 36027 ft | 438 kts | 294° |
| 2026-05-05 03:54 | 34.93245 | -118.62050 | 36024 ft | 438 kts | 294° |
| 2026-05-05 03:55 | 34.96569 | -118.68252 | 36042 ft | 437 kts | 294° |
| 2026-05-05 03:55 | 34.99892 | -118.74471 | 36027 ft | 438 kts | 295° |
| 2026-05-05 03:56 | 35.03223 | -118.80709 | 36030 ft | 439 kts | 295° |
| 2026-05-05 03:56 | 35.06559 | -118.86958 | 36011 ft | 440 kts | 295° |
| 2026-05-05 03:57 | 35.09896 | -118.93222 | 36011 ft | 440 kts | 295° |
| 2026-05-05 03:57 | 35.13230 | -118.99507 | 36024 ft | 441 kts | 296° |
| 2026-05-05 03:58 | 35.16562 | -119.05800 | 36015 ft | 442 kts | 296° |
| 2026-05-05 03:58 | 35.19902 | -119.12106 | 36017 ft | 442 kts | 296° |
| 2026-05-05 03:59 | 35.23241 | -119.18427 | 36009 ft | 443 kts | 296° |
| 2026-05-05 03:59 | 35.26579 | -119.24761 | 36006 ft | 443 kts | 297° |
| 2026-05-05 04:00 | 35.29930 | -119.31115 | 36023 ft | 444 kts | 297° |
| 2026-05-05 04:00 | 35.33275 | -119.37477 | 36024 ft | 444 kts | 297° |
| 2026-05-05 04:01 | 35.36617 | -119.43854 | 36017 ft | 445 kts | 297° |
| 2026-05-05 04:01 | 35.39958 | -119.50239 | 36018 ft | 445 kts | 297° |
| 2026-05-05 04:02 | 35.43300 | -119.56627 | 36031 ft | 445 kts | 298° |
| 2026-05-05 04:02 | 35.46644 | -119.63030 | 36031 ft | 446 kts | 298° |
| 2026-05-05 04:03 | 35.49984 | -119.69450 | 36033 ft | 447 kts | 298° |
| 2026-05-05 04:03 | 35.53333 | -119.75893 | 36037 ft | 448 kts | 298° |
| 2026-05-05 04:04 | 35.56678 | -119.82352 | 36026 ft | 448 kts | 298° |
| 2026-05-05 04:04 | 35.60018 | -119.88820 | 36040 ft | 448 kts | 298° |
| 2026-05-05 04:05 | 35.63306 | -119.95391 | 36045 ft | 446 kts | 293° |
| 2026-05-05 04:05 | 35.65164 | -120.02524 | 36030 ft | 440 kts | 275° |
| 2026-05-05 04:06 | 35.65891 | -120.09985 | 36036 ft | 440 kts | 274° |
| 2026-05-05 04:06 | 35.66622 | -120.17466 | 36045 ft | 441 kts | 275° |
| 2026-05-05 04:07 | 35.67356 | -120.24970 | 36050 ft | 442 kts | 275° |
| 2026-05-05 04:07 | 35.68156 | -120.32528 | 36058 ft | 444 kts | 280° |
| 2026-05-05 04:08 | 35.70293 | -120.39666 | 36065 ft | 448 kts | 293° |
| 2026-05-05 04:08 | 35.72958 | -120.46595 | 36071 ft | 449 kts | 294° |
| 2026-05-05 04:09 | 35.75615 | -120.53564 | 36070 ft | 450 kts | 294° |
| 2026-05-05 04:09 | 35.78271 | -120.60551 | 36071 ft | 451 kts | 294° |
| 2026-05-05 04:10 | 35.80936 | -120.67543 | 36073 ft | 451 kts | 294° |
| 2026-05-05 04:10 | 35.83597 | -120.74554 | 36075 ft | 452 kts | 294° |
| 2026-05-05 04:11 | 35.86251 | -120.81574 | 36060 ft | 452 kts | 294° |
| 2026-05-05 04:11 | 35.88908 | -120.88613 | 36056 ft | 453 kts | 294° |
| 2026-05-05 04:12 | 35.91568 | -120.95664 | 36063 ft | 453 kts | 294° |
| 2026-05-05 04:12 | 35.94233 | -121.02722 | 36068 ft | 454 kts | 294° |
| 2026-05-05 04:13 | 35.96882 | -121.09791 | 36066 ft | 454 kts | 294° |
| 2026-05-05 04:13 | 35.98207 | -121.13341 | 35475 ft | 458 kts | 295° |
| 2026-05-05 04:13 | 35.99546 | -121.16930 | 34708 ft | 462 kts | 295° |
| 2026-05-05 04:14 | 36.00903 | -121.20555 | 33852 ft | 468 kts | 296° |
| 2026-05-05 04:14 | 36.02274 | -121.24217 | 32994 ft | 470 kts | 296° |
| 2026-05-05 04:14 | 36.03635 | -121.27862 | 32494 ft | 465 kts | 296° |
| 2026-05-05 04:14 | 36.04995 | -121.31470 | 31958 ft | 461 kts | 299° |
| 2026-05-05 04:15 | 36.06679 | -121.34798 | 31419 ft | 454 kts | 310° |
| 2026-05-05 04:15 | 36.08797 | -121.37637 | 30892 ft | 445 kts | 323° |
| 2026-05-05 04:15 | 36.11241 | -121.39905 | 30389 ft | 435 kts | 333° |
| 2026-05-05 04:15 | 36.13798 | -121.41879 | 29845 ft | 432 kts | 333° |
| 2026-05-05 04:16 | 36.16325 | -121.43843 | 29337 ft | 426 kts | 333° |
| 2026-05-05 04:16 | 36.18820 | -121.45791 | 28856 ft | 422 kts | 333° |
| 2026-05-05 04:16 | 36.21292 | -121.47727 | 28372 ft | 418 kts | 332° |
| 2026-05-05 04:16 | 36.23737 | -121.49648 | 27912 ft | 414 kts | 332° |
| 2026-05-05 04:17 | 36.26162 | -121.51549 | 27456 ft | 410 kts | 332° |
| 2026-05-05 04:17 | 36.28564 | -121.53430 | 27008 ft | 406 kts | 332° |
| 2026-05-05 04:17 | 36.30945 | -121.55298 | 26568 ft | 404 kts | 331° |
| 2026-05-05 04:17 | 36.33307 | -121.57154 | 26134 ft | 401 kts | 331° |
| 2026-05-05 04:18 | 36.35660 | -121.59004 | 25699 ft | 399 kts | 331° |
| 2026-05-05 04:18 | 36.38001 | -121.60842 | 25284 ft | 397 kts | 330° |
| 2026-05-05 04:18 | 36.40333 | -121.62673 | 24852 ft | 396 kts | 330° |
| 2026-05-05 04:18 | 36.42656 | -121.64501 | 24411 ft | 395 kts | 332° |
| 2026-05-05 04:19 | 36.44976 | -121.66325 | 23980 ft | 394 kts | 331° |
| 2026-05-05 04:19 | 36.47290 | -121.68143 | 23518 ft | 394 kts | 331° |
| 2026-05-05 04:19 | 36.49605 | -121.69961 | 23037 ft | 392 kts | 331° |
| 2026-05-05 04:19 | 36.51897 | -121.71762 | 22639 ft | 388 kts | 331° |
| 2026-05-05 04:20 | 36.54142 | -121.73537 | 22478 ft | 378 kts | 331° |
| 2026-05-05 04:20 | 36.56348 | -121.75287 | 22042 ft | 375 kts | 330° |
| 2026-05-05 04:20 | 36.58538 | -121.77024 | 21595 ft | 372 kts | 330° |
| 2026-05-05 04:20 | 36.60713 | -121.78746 | 21115 ft | 370 kts | 332° |
| 2026-05-05 04:21 | 36.62885 | -121.80464 | 20663 ft | 368 kts | 332° |
| 2026-05-05 04:21 | 36.65029 | -121.82163 | 20270 ft | 364 kts | 332° |
| 2026-05-05 04:21 | 36.67152 | -121.83849 | 19844 ft | 361 kts | 332° |
| 2026-05-05 04:21 | 36.69261 | -121.85528 | 19430 ft | 358 kts | 331° |
| 2026-05-05 04:22 | 36.71349 | -121.87189 | 19015 ft | 355 kts | 331° |
| 2026-05-05 04:22 | 36.73460 | -121.88765 | 18626 ft | 350 kts | 338° |
| 2026-05-05 04:22 | 36.75711 | -121.89835 | 18201 ft | 344 kts | 348° |
| 2026-05-05 04:22 | 36.78027 | -121.90489 | 17720 ft | 340 kts | 351° |
| 2026-05-05 04:23 | 36.80332 | -121.91125 | 17269 ft | 338 kts | 351° |
| 2026-05-05 04:23 | 36.82600 | -121.91757 | 16610 ft | 332 kts | 351° |
| 2026-05-05 04:23 | 36.84839 | -121.92386 | 15851 ft | 328 kts | 351° |
| 2026-05-05 04:23 | 36.87060 | -121.93009 | 15399 ft | 326 kts | 351° |
| 2026-05-05 04:24 | 36.89265 | -121.93624 | 14983 ft | 324 kts | 351° |
| 2026-05-05 04:24 | 36.91458 | -121.94237 | 14561 ft | 322 kts | 351° |
| 2026-05-05 04:24 | 36.93638 | -121.94847 | 14146 ft | 320 kts | 350° |
| 2026-05-05 04:25 | 36.97935 | -121.96239 | 13295 ft | 317 kts | 346° |
| 2026-05-05 04:25 | 37.00030 | -121.97065 | 12896 ft | 315 kts | 345° |
| 2026-05-05 04:25 | 37.02104 | -121.97909 | 12495 ft | 312 kts | 344° |
| 2026-05-05 04:25 | 37.04161 | -121.98748 | 12102 ft | 310 kts | 344° |
| 2026-05-05 04:26 | 37.06200 | -121.99572 | 11709 ft | 308 kts | 344° |
| 2026-05-05 04:26 | 37.08243 | -122.00390 | 11312 ft | 307 kts | 344° |
| 2026-05-05 04:26 | 37.10273 | -122.01196 | 10919 ft | 305 kts | 344° |
| 2026-05-05 04:26 | 37.12291 | -122.01991 | 10535 ft | 304 kts | 344° |
| 2026-05-05 04:27 | 37.14313 | -122.02783 | 10152 ft | 303 kts | 344° |
| 2026-05-05 04:27 | 37.16287 | -122.03556 | 10024 ft | 292 kts | 344° |
| 2026-05-05 04:27 | 37.18210 | -122.04306 | 9797 ft | 286 kts | 343° |
| 2026-05-05 04:27 | 37.20073 | -122.05035 | 9651 ft | 277 kts | 343° |
| 2026-05-05 04:28 | 37.21284 | -122.05511 | 9463 ft | 275 kts | 344° |
| 2026-05-05 04:28 | 37.23110 | -122.06228 | 9119 ft | 274 kts | 344° |
| 2026-05-05 04:28 | 37.24933 | -122.06943 | 8753 ft | 275 kts | 344° |
| 2026-05-05 04:28 | 37.26757 | -122.07660 | 8417 ft | 275 kts | 344° |
| 2026-05-05 04:29 | 37.28585 | -122.08379 | 8064 ft | 276 kts | 343° |
| 2026-05-05 04:29 | 37.30442 | -122.09108 | 7692 ft | 277 kts | 343° |
| 2026-05-05 04:29 | 37.32153 | -122.09779 | 7323 ft | 276 kts | 343° |
| 2026-05-05 04:29 | 37.34087 | -122.10535 | 6738 ft | 275 kts | 342° |
| 2026-05-05 04:30 | 37.35916 | -122.11258 | 6329 ft | 277 kts | 342° |
| 2026-05-05 04:30 | 37.37761 | -122.11986 | 5945 ft | 278 kts | 342° |
| 2026-05-05 04:30 | 37.39617 | -122.12666 | 5613 ft | 277 kts | 344° |
| 2026-05-05 04:30 | 37.41476 | -122.13304 | 5281 ft | 276 kts | 345° |
| 2026-05-05 04:31 | 37.43328 | -122.13924 | 4958 ft | 275 kts | 345° |
| 2026-05-05 04:31 | 37.45179 | -122.14543 | 4615 ft | 274 kts | 344° |
| 2026-05-05 04:31 | 37.46964 | -122.15135 | 4290 ft | 273 kts | 344° |
| 2026-05-05 04:31 | 37.48762 | -122.15719 | 3969 ft | 271 kts | 344° |
| 2026-05-05 04:32 | 37.50584 | -122.16312 | 3635 ft | 270 kts | 343° |
| 2026-05-05 04:32 | 37.52360 | -122.17062 | 3407 ft | 262 kts | 330° |
| 2026-05-05 04:32 | 37.53807 | -122.18388 | 3142 ft | 255 kts | 313° |
| 2026-05-05 04:32 | 37.54809 | -122.20163 | 2836 ft | 251 kts | 297° |
| 2026-05-05 04:33 | 37.55634 | -122.22127 | 2488 ft | 250 kts | 297° |
| 2026-05-05 04:33 | 37.56436 | -122.24030 | 2151 ft | 232 kts | 297° |
| 2026-05-05 04:33 | 37.57157 | -122.25738 | 1861 ft | 213 kts | 297° |
| 2026-05-05 04:33 | 37.57815 | -122.27300 | 1577 ft | 199 kts | 297° |
| 2026-05-05 04:34 | 37.58445 | -122.28796 | 1317 ft | 189 kts | 297° |
| 2026-05-05 04:34 | 37.59038 | -122.30204 | 1083 ft | 175 kts | 297° |
| 2026-05-05 04:34 | 37.59577 | -122.31486 | 836 ft | 154 kts | 297° |
| 2026-05-05 04:34 | 37.60047 | -122.32604 | 634 ft | 139 kts | 298° |
| 2026-05-05 04:35 | 37.60487 | -122.33650 | 451 ft | 132 kts | 298° |
| 2026-05-05 04:35 | 37.60913 | -122.34667 | 286 ft | 131 kts | 298° |
| 2026-05-05 04:35 | 37.61342 | -122.35685 | 98 ft | 131 kts | 298° |
| 2026-05-05 04:35 | 37.61751 | -122.36661 | 23 ft | 113 kts | 298° |
| 2026-05-05 04:36 | 37.62008 | -122.37268 | 17 ft | 40 kts | 298° |
| 2026-05-05 04:36 | 37.62092 | -122.37469 | 16 ft | 27 kts | 298° |
| 2026-05-05 04:36 | 37.62177 | -122.37676 | 21 ft | 26 kts | 293° |
| 2026-05-05 04:36 | 37.62210 | -122.37890 | 22 ft | 19 kts | 279° |
| 2026-05-05 04:37 | 37.62224 | -122.38051 | 25 ft | 13 kts | 278° |
| 2026-05-05 04:37 | 37.62226 | -122.38081 | 25 ft | 0 kts | 276° |
| 2026-05-05 04:37 | 37.62226 | -122.38082 | 25 ft | 0 kts | 276° |
| 2026-05-05 04:38 | 37.62228 | -122.38098 | 27 ft | 6 kts | 276° |
| 2026-05-05 04:38 | 37.62226 | -122.38192 | 25 ft | 15 kts | 262° |
| 2026-05-05 04:39 | 37.62161 | -122.38303 | 22 ft | 17 kts | 211° |
| 2026-05-05 04:39 | 37.62077 | -122.38336 | 23 ft | 11 kts | 196° |
| 2026-05-05 04:39 | 37.62011 | -122.38309 | 24 ft | 11 kts | 125° |
| 2026-05-05 04:39 | 37.61954 | -122.38258 | 23 ft | 10 kts | 184° |
| 2026-05-05 04:40 | 37.61876 | -122.38296 | 19 ft | 15 kts | 191° |
| 2026-05-05 04:40 | 37.61814 | -122.38265 | 18 ft | 5 kts | 118° |
| 2026-05-05 04:40 | 37.61800 | -122.38230 | 18 ft | 2 kts | 119° |
| 2026-05-05 04:40 | 37.61796 | -122.38221 | 17 ft | 0 kts | 119° |